Time;durP1;ratioP1;P1;durP2;ratioP2;P2;SDS_P1;SDS_P2;PMS_P1;PMS_P2;Temp;Humidity;BMP_temperature;BMP_pressure;BME280_temperature;BME280_humidity;BME280_pressure;Samples;Min_cycle;Max_cycle;Signal;HPM_P1;HPM_P2
2023/10/07 00:02:00;;;;;;;7.40;4.60;;;;;;;16.20;54.21;100325.91;112133;1243;21959;-78
2023/10/07 00:05:14;;;;;;;11.30;5.40;;;;;;;16.20;54.07;100326.27;112310;1243;22479;-79
2023/10/07 00:07:49;;;;;;;10.40;5.00;;;;;;;16.21;53.99;100323.73;112552;1238;21956;-78
2023/10/07 00:10:36;;;;;;;7.10;4.80;;;;;;;16.23;53.90;100318.89;112530;1242;23083;-78
2023/10/07 00:13:34;;;;;;;8.30;5.00;;;;;;;16.22;53.95;100314.89;111932;1248;21949;-79
2023/10/07 00:16:24;;;;;;;8.40;4.90;;;;;;;16.23;53.79;100315.74;111460;1252;23117;-79
2023/10/07 00:19:16;;;;;;;7.80;4.50;;;;;;;16.22;53.79;100314.70;111086;1257;21972;-79
2023/10/07 00:22:40;;;;;;;;;;;;;;;;;;;;;
2023/10/07 00:25:36;;;;;;;;;;;;;;;16.18;53.88;100300.94;111479;1254;23619;-78
2023/10/07 00:29:17;;;;;;;7.80;4.50;;;;;;;16.08;54.16;100296.63;111436;1254;21960;-77
2023/10/07 00:32:32;;;;;;;6.90;4.70;;;;;;;16.10;54.11;100291.28;111633;1249;23487;-78
2023/10/07 00:35:23;;;;;;;10.70;4.70;;;;;;;16.13;54.08;100295.45;112253;1244;21951;-79
2023/10/07 00:38:54;;;;;;;;;;;;;;;;;;;;;
2023/10/07 00:41:50;;;;;;;7.40;5.00;;;;;;;16.14;54.10;100277.48;112898;1239;22716;-77
2023/10/07 00:45:00;;;;;;;8.20;4.10;;;;;;;16.24;53.98;100289.70;112653;1239;23692;-78
2023/10/07 00:48:17;;;;;;;7.70;4.50;;;;;;;16.26;54.12;100282.56;112915;1239;21940;-78
2023/10/07 00:51:33;;;;;;;8.70;4.20;;;;;;;16.29;53.99;100274.27;112646;1239;23120;-78
2023/10/07 00:55:27;;;;;;;6.80;4.40;;;;;;;16.29;54.03;100273.42;112836;1239;21959;-77
2023/10/07 00:57:57;;;;;;;;;;;;;;;;;;;;;
2023/10/07 01:01:15;;;;;;;;;;;;;;;;;;;;;
2023/10/07 01:04:25;;;;;;;7.80;4.60;;;;;;;16.26;53.87;100250.23;111594;1249;23710;-79
2023/10/07 01:07:59;;;;;;;6.20;4.40;;;;;;;16.25;54.09;100242.23;111831;1246;22488;-78
2023/10/07 01:14:35;;;;;;;6.80;4.00;;;;;;;16.24;54.00;100244.58;111339;1253;22532;-77
2023/10/07 01:17:33;;;;;;;6.00;4.30;;;;;;;16.24;53.99;100238.55;112216;1245;23026;-78
2023/10/07 01:23:59;;;;;;;6.60;3.90;;;;;;;16.22;54.22;100229.02;111486;1249;21984;-78
2023/10/07 01:27:34;;;;;;;6.80;4.20;;;;;;;16.21;54.31;100229.63;111495;1249;21983;-79
2023/10/07 01:31:07;;;;;;;6.40;4.40;;;;;;;16.22;54.41;100231.01;111708;1249;23882;-79
2023/10/07 01:34:26;;;;;;;;;;;;;;;;;;;;;
2023/10/07 01:37:51;;;;;;;7.50;3.80;;;;;;;16.21;54.72;100229.65;110943;1257;21974;-78
2023/10/07 01:40:45;;;;;;;9.00;3.80;;;;;;;16.23;54.64;100230.41;110764;1255;22035;-79
2023/10/07 01:43:48;;;;;;;5.50;3.50;;;;;;;16.24;54.71;100228.36;111039;1255;22707;-79
2023/10/07 01:46:55;;;;;;;6.70;3.80;;;;;;;16.24;54.84;100226.14;110987;1258;23581;-79
2023/10/07 01:50:06;;;;;;;7.30;4.10;;;;;;;16.25;54.87;100222.22;110733;1258;21969;-80
2023/10/07 01:53:20;;;;;;;6.30;3.60;;;;;;;16.24;55.00;100225.21;111652;1251;23706;-79
2023/10/07 01:56:07;;;;;;;6.30;3.90;;;;;;;16.27;55.09;100223.64;111664;1251;21957;-81
2023/10/07 02:02:27;;;;;;;;;;;;;;;;;;;;;
2023/10/07 02:12:28;;;;;;;5.30;3.30;;;;;;;16.33;55.39;100204.67;112509;1241;23039;-79
2023/10/07 02:15:46;;;;;;;9.10;3.70;;;;;;;16.34;55.45;100194.71;112384;1246;21969;-80
2023/10/07 02:18:44;;;;;;;6.90;3.80;;;;;;;16.37;55.46;100187.70;112187;1246;22000;-79
2023/10/07 02:21:48;;;;;;;5.40;3.70;;;;;;;16.39;55.46;100189.84;112379;1246;22449;-79
2023/10/07 02:25:02;;;;;;;5.60;3.60;;;;;;;16.42;55.47;100189.98;111902;1246;21935;-78
2023/10/07 02:28:33;;;;;;;;;;;;;;;;;;;;;
2023/10/07 02:31:24;;;;;;;5.60;3.30;;;;;;;16.42;55.50;100177.70;112989;1237;23215;-77
2023/10/07 02:34:14;;;;;;;5.40;3.40;;;;;;;16.45;55.52;100173.14;113097;1232;21959;-78
2023/10/07 02:37:13;;;;;;;4.80;3.50;;;;;;;16.46;55.54;100171.32;113499;1232;22916;-77
2023/10/07 02:40:19;;;;;;;8.40;4.00;;;;;;;16.45;55.47;100164.52;113501;1232;22098;-78
2023/10/07 02:42:57;;;;;;;7.40;3.90;;;;;;;16.45;55.44;100162.98;113397;1232;21959;-78
2023/10/07 02:45:44;;;;;;;10.30;3.70;;;;;;;16.46;55.57;100159.36;112788;1239;21934;-78
2023/10/07 02:48:19;;;;;;;7.10;3.40;;;;;;;16.46;55.61;100163.24;112765;1239;23606;-77
2023/10/07 02:50:51;;;;;;;10.20;3.60;;;;;;;16.48;55.70;100161.56;112852;1239;21952;-78
2023/10/07 02:53:20;;;;;;;10.70;3.60;;;;;;;16.48;55.83;100158.04;112788;1239;21938;-77
2023/10/07 02:55:58;;;;;;;8.70;4.20;;;;;;;16.45;55.99;100155.95;112869;1239;22318;-77
2023/10/07 02:58:36;;;;;;;8.70;3.50;;;;;;;16.42;56.26;100154.02;112143;1243;23634;-78
2023/10/07 03:01:13;;;;;;;6.20;3.50;;;;;;;16.37;56.53;100153.64;112235;1243;21906;-77
2023/10/07 03:03:52;;;;;;;5.80;3.70;;;;;;;16.33;56.90;100151.99;112569;1238;21955;-77
2023/10/07 03:06:46;;;;;;;8.20;3.80;;;;;;;16.27;57.18;100147.42;112370;1243;22614;-77
2023/10/07 03:10:30;;;;;;;9.10;3.80;;;;;;;16.21;57.77;100150.84;111619;1249;22176;-77
2023/10/07 03:13:45;;;;;;;7.30;3.80;;;;;;;16.17;58.09;100158.59;111608;1250;23058;-77
2023/10/07 03:16:45;;;;;;;7.20;3.80;;;;;;;16.17;58.25;100160.56;111736;1246;21991;-79
2023/10/07 03:19:48;;;;;;;6.60;4.00;;;;;;;16.16;58.34;100159.70;112181;1245;22841;-78
2023/10/07 03:28:36;;;;;;;7.50;3.50;;;;;;;16.11;58.73;100153.02;112641;1237;21987;-78
2023/10/07 03:31:13;;;;;;;;;;;;;;;16.10;58.82;100146.02;113106;1237;23674;-78
2023/10/07 03:33:58;;;;;;;6.90;3.60;;;;;;;16.01;59.05;100148.20;112952;1236;21937;-77
2023/10/07 03:36:41;;;;;;;7.00;4.30;;;;;;;16.01;59.06;100151.37;113264;1237;21925;-79
2023/10/07 03:39:23;;;;;;;5.80;4.10;;;;;;;16.02;58.94;100145.34;113042;1237;21944;-80
2023/10/07 03:42:19;;;;;;;8.50;3.90;;;;;;;16.01;59.06;100133.82;112526;1242;23009;-80
2023/10/07 03:45:00;;;;;;;6.20;4.00;;;;;;;16.02;59.10;100135.15;113014;1239;23023;-78
2023/10/07 03:47:40;;;;;;;6.10;3.50;;;;;;;16.04;59.07;100132.91;112785;1239;21951;-78
2023/10/07 03:51:27;;;;;;;8.70;4.60;;;;;;;16.06;59.11;100127.23;112238;1244;21979;-78
2023/10/07 03:54:41;;;;;;;8.90;4.30;;;;;;;16.04;59.01;100130.83;112170;1244;23744;-77
2023/10/07 03:57:29;;;;;;;5.90;3.40;;;;;;;16.06;59.16;100125.48;112170;1242;23430;-78
2023/10/07 04:00:43;;;;;;;7.00;3.50;;;;;;;16.07;59.13;100118.90;112584;1240;22812;-78
2023/10/07 04:03:30;;;;;;;5.90;3.60;;;;;;;16.10;59.11;100120.77;112660;1237;21948;-79
2023/10/07 04:06:30;;;;;;;6.60;3.50;;;;;;;16.12;59.20;100125.92;112741;1240;21967;-79
2023/10/07 04:09:44;;;;;;;6.30;3.90;;;;;;;16.14;59.22;100124.20;113420;1232;22069;-78
2023/10/07 04:12:27;;;;;;;6.90;4.00;;;;;;;16.16;59.23;100123.25;113404;1232;23679;-82
2023/10/07 04:15:51;;;;;;;8.40;3.60;;;;;;;16.17;59.30;100126.49;113111;1237;21938;-78
2023/10/07 04:18:45;;;;;;;8.60;3.80;;;;;;;16.18;59.23;100125.36;112911;1237;22254;-78
2023/10/07 04:21:39;;;;;;;8.60;4.50;;;;;;;16.18;59.18;100126.58;113054;1237;21996;-78
2023/10/07 04:24:38;;;;;;;7.70;4.00;;;;;;;16.19;59.31;100123.02;112137;1243;23293;-77
2023/10/07 04:27:29;;;;;;;9.50;3.50;;;;;;;16.16;59.41;100119.16;112254;1242;23686;-81
2023/10/07 04:30:13;;;;;;;7.70;4.20;;;;;;;16.14;59.51;100113.48;112391;1243;23014;-77
2023/10/07 04:33:10;;;;;;;5.90;3.40;;;;;;;16.15;59.57;100113.27;112386;1238;22412;-78
2023/10/07 04:36:38;;;;;;;5.90;3.70;;;;;;;16.14;59.68;100109.70;113051;1238;23091;-78
2023/10/07 04:39:22;;;;;;;5.50;3.70;;;;;;;16.15;59.68;100102.59;113082;1238;23196;-78
2023/10/07 04:42:39;;;;;;;7.50;4.20;;;;;;;16.15;59.76;100103.06;113069;1232;23782;-79
2023/10/07 04:45:49;;;;;;;;;;;;;;;16.18;59.83;100103.81;113619;1232;23133;-78
2023/10/07 04:48:54;;;;;;;10.00;5.00;;;;;;;16.09;60.12;100095.92;113345;1232;21932;-80
2023/10/07 04:51:58;;;;;;;9.30;4.20;;;;;;;16.11;60.13;100094.07;113318;1232;21951;-77
2023/10/07 04:54:52;;;;;;;10.10;4.90;;;;;;;16.12;60.20;100096.08;113517;1232;21960;-76
2023/10/07 05:00:51;;;;;;;10.90;4.60;;;;;;;16.13;60.71;100095.86;111896;1247;23039;-78
2023/10/07 05:03:43;;;;;;;6.20;4.00;;;;;;;16.11;60.95;100092.80;111794;1247;22901;-77
2023/10/07 05:06:55;;;;;;;7.90;4.10;;;;;;;16.10;61.07;100097.96;111753;1247;21987;-77
2023/10/07 05:09:57;;;;;;;5.30;3.70;;;;;;;16.11;61.24;100096.37;111735;1247;24284;-77
2023/10/07 05:13:01;;;;;;;8.00;4.40;;;;;;;16.11;61.22;100102.14;111642;1248;21997;-77
2023/10/07 05:15:41;;;;;;;8.10;4.20;;;;;;;16.09;61.43;100103.65;111869;1244;23751;-78
2023/10/07 05:18:34;;;;;;;5.50;3.80;;;;;;;16.02;61.60;100086.93;112265;1244;21939;-77
2023/10/07 05:21:21;;;;;;;6.40;4.20;;;;;;;16.04;61.86;100098.23;112084;1244;22777;-77
2023/10/07 05:24:25;;;;;;;4.30;3.50;;;;;;;16.01;62.16;100098.58;112254;1244;21947;-77
2023/10/07 05:27:55;;;;;;;7.90;4.90;;;;;;;15.96;62.56;100109.73;112354;1244;23025;-76
2023/10/07 05:30:54;;;;;;;5.30;3.80;;;;;;;15.92;62.79;100111.23;111423;1248;23587;-77
2023/10/07 05:34:04;;;;;;;9.20;4.30;;;;;;;15.92;63.05;100115.43;111487;1248;22028;-77
2023/10/07 05:37:32;;;;;;;6.40;4.50;;;;;;;15.94;63.14;100113.73;111532;1242;21967;-76
2023/10/07 05:40:06;;;;;;;6.20;3.50;;;;;;;15.94;63.23;100114.77;112255;1241;23610;-76
2023/10/07 05:43:00;;;;;;;6.10;4.00;;;;;;;15.97;63.40;100118.48;111979;1246;21969;-77
2023/10/07 05:45:59;;;;;;;9.40;4.00;;;;;;;16.01;63.33;100115.04;111626;1246;23764;-76
2023/10/07 05:48:45;;;;;;;4.80;3.70;;;;;;;16.05;63.32;100114.08;111917;1246;23059;-76
2023/10/07 05:51:41;;;;;;;7.50;4.50;;;;;;;16.08;63.34;100118.30;111713;1246;23707;-76
2023/10/07 05:54:48;;;;;;;6.80;3.90;;;;;;;16.12;63.38;100119.30;111343;1252;21945;-77
2023/10/07 05:57:40;;;;;;;9.10;3.90;;;;;;;16.17;63.33;100126.69;111120;1252;23717;-77
2023/10/07 06:00:49;;;;;;;7.60;3.70;;;;;;;16.21;63.20;100130.79;111513;1246;22319;-77
2023/10/07 06:03:26;;;;;;;5.70;3.70;;;;;;;16.26;63.11;100138.70;111416;1250;22817;-76
2023/10/07 06:06:06;;;;;;;7.10;4.20;;;;;;;16.32;62.98;100140.65;111591;1250;23033;-77
2023/10/07 06:08:52;;;;;;;8.60;4.60;;;;;;;16.34;62.90;100135.94;112122;1242;22850;-77
2023/10/07 06:12:18;;;;;;;9.30;4.00;;;;;;;16.39;62.82;100138.90;112313;1237;21931;-77
2023/10/07 06:15:19;;;;;;;5.70;3.50;;;;;;;16.44;62.80;100133.71;112334;1242;21945;-77
2023/10/07 06:18:18;;;;;;;5.80;4.10;;;;;;;16.48;62.64;100132.19;111736;1248;21958;-77
2023/10/07 06:21:55;;;;;;;6.10;3.80;;;;;;;16.51;62.28;100124.80;111320;1252;22028;-77
2023/10/07 06:25:04;;;;;;;6.20;3.70;;;;;;;16.54;62.37;100126.52;110655;1258;22841;-78
2023/10/07 06:29:05;;;;;;;5.00;3.20;;;;;;;16.55;62.22;100125.92;110971;1254;24314;-78
2023/10/07 06:32:43;;;;;;;8.10;4.80;;;;;;;16.60;62.32;100131.63;110601;1254;21982;-78
2023/10/07 06:35:47;;;;;;;9.60;4.00;;;;;;;16.69;62.30;100132.77;111139;1253;21976;-78
2023/10/07 06:39:07;;;;;;;5.70;3.70;;;;;;;16.76;62.14;100133.66;111012;1252;23708;-77
2023/10/07 06:42:58;;;;;;;7.80;4.10;;;;;;;16.81;61.94;100131.08;111509;1244;23474;-79
2023/10/07 06:45:39;;;;;;;13.40;4.00;;;;;;;16.86;61.79;100128.16;111952;1248;23693;-77
2023/10/07 06:49:48;;;;;;;7.10;3.60;;;;;;;16.92;61.72;100134.41;111813;1248;22096;-78
2023/10/07 06:52:56;;;;;;;10.30;3.90;;;;;;;16.95;61.53;100139.45;111810;1248;22036;-77
2023/10/07 06:56:30;;;;;;;7.40;3.90;;;;;;;16.99;61.68;100146.04;111143;1255;22035;-78
2023/10/07 06:59:53;;;;;;;9.30;3.70;;;;;;;17.07;61.52;100146.77;110711;1260;23660;-78
2023/10/07 07:03:05;;;;;;;;;;;;;;;;;;;;;
2023/10/07 07:06:45;;;;;;;;;;;;;;;;;;;;;
2023/10/07 07:13:38;;;;;;;10.60;3.90;;;;;;;17.41;60.79;100142.31;110451;1262;21984;-77
2023/10/07 07:16:47;;;;;;;7.50;3.50;;;;;;;17.43;60.61;100138.99;110854;1257;22020;-77
2023/10/07 07:23:35;;;;;;;;;;;;;;;;;;;;;
2023/10/07 07:26:32;;;;;;;;;;;;;;;17.54;60.09;100148.43;111487;1253;22837;-77
2023/10/07 07:29:41;;;;;;;;;;;;;;;;;;;;;
2023/10/07 07:32:48;;;;;;;8.30;4.20;;;;;;;17.49;60.20;100157.71;111412;1255;21961;-79
2023/10/07 07:40:18;;;;;;;7.40;3.80;;;;;;;17.60;59.94;100152.42;110580;1261;21961;-78
2023/10/07 07:43:51;;;;;;;12.60;4.00;;;;;;;17.63;60.04;100151.36;110722;1257;22889;-77
2023/10/07 07:46:55;;;;;;;6.20;3.50;;;;;;;17.68;60.00;100150.63;110909;1252;22410;-78
2023/10/07 07:49:38;;;;;;;11.70;3.80;;;;;;;17.73;59.84;100152.77;111032;1255;23670;-77
2023/10/07 07:52:23;;;;;;;6.90;4.30;;;;;;;17.77;59.82;100150.52;111173;1255;23047;-78
2023/10/07 07:56:08;;;;;;;;;;;;;;;;;;;;;
2023/10/07 08:00:16;;;;;;;;;;;;;;;;;;;;;
2023/10/07 08:07:46;;;;;;;6.20;3.80;;;;;;;17.71;59.59;100172.78;110398;1262;22133;-86
2023/10/07 08:10:53;;;;;;;;;;;;;;;;;;;;;
2023/10/07 08:13:53;;;;;;;6.60;4.50;;;;;;;17.63;60.05;100172.64;110570;1263;23603;-79
2023/10/07 08:16:52;;;;;;;9.40;3.70;;;;;;;17.65;60.10;100177.89;110623;1257;23004;-79
2023/10/07 08:20:43;;;;;;;7.80;3.90;;;;;;;17.64;60.04;100179.42;111982;1242;22288;-77
2023/10/07 08:24:45;;;;;;;;;;;;;;;;;;;;;
2023/10/07 08:31:19;;;;;;;11.20;3.50;;;;;;;17.60;60.15;100168.80;111609;1251;21964;-78
2023/10/07 08:35:28;;;;;;;;;;;;;;;;;;;;;
2023/10/07 08:38:37;;;;;;;8.00;3.80;;;;;;;17.61;60.18;100182.24;111793;1248;23712;-78
2023/10/07 08:42:26;;;;;;;5.50;3.70;;;;;;;17.52;60.21;100167.39;111172;1255;21960;-78
2023/10/07 08:45:23;;;;;;;6.90;3.50;;;;;;;17.58;60.33;100172.80;111734;1242;22014;-79
2023/10/07 08:48:27;;;;;;;;;;;;;;;;;;;;;
2023/10/07 08:55:18;;;;;;;6.80;3.50;;;;;;;17.56;60.60;100167.14;111307;1254;22110;-78
2023/10/07 08:58:34;;;;;;;;;;;;;;;;;;;;;
2023/10/07 09:01:48;;;;;;;7.90;3.50;;;;;;;17.63;60.86;100172.26;110886;1257;23718;-78
2023/10/07 09:04:55;;;;;;;12.30;3.80;;;;;;;17.64;60.71;100178.34;110951;1256;22002;-78
2023/10/07 09:09:28;;;;;;;8.20;4.00;;;;;;;17.86;60.38;100175.25;107712;1294;548317;-78
2023/10/07 09:13:04;;;;;;;6.80;3.40;;;;;;;17.75;60.44;100176.54;109757;1270;22000;-78
2023/10/07 09:16:32;;;;;;;8.10;3.70;;;;;;;17.68;60.68;100177.20;110641;1260;21980;-78
2023/10/07 09:19:48;;;;;;;;;;;;;;;;;;;;;
2023/10/07 09:23:09;;;;;;;6.40;3.90;;;;;;;17.57;61.18;100174.27;106805;1259;5101416;-77
2023/10/07 09:26:22;;;;;;;8.20;4.00;;;;;;;17.58;61.40;100177.39;110455;1264;22456;-79
2023/10/07 09:29:26;;;;;;;;;;;;;;;;;;;;;
2023/10/07 09:32:22;;;;;;;5.20;3.70;;;;;;;17.61;61.48;100179.63;109826;1266;23080;-77
2023/10/07 09:35:19;;;;;;;11.10;3.70;;;;;;;17.60;61.43;100186.02;109708;1265;21989;-78
2023/10/07 09:38:33;;;;;;;7.30;3.70;;;;;;;17.57;61.54;100185.86;109591;1269;22118;-78
2023/10/07 09:42:47;;;;;;;7.80;4.00;;;;;;;17.55;61.79;100184.27;109561;1269;23029;-79
2023/10/07 09:46:14;;;;;;;;;;;;;;;;;;;;;
2023/10/07 09:49:40;;;;;;;9.10;3.70;;;;;;;17.54;61.81;100193.46;109678;1267;22090;-79
2023/10/07 09:53:40;;;;;;;6.20;4.00;;;;;;;17.57;61.90;100194.51;110020;1267;22051;-79
2023/10/07 09:57:54;;;;;;;6.30;3.90;;;;;;;17.59;61.87;100191.19;109652;1266;23062;-77
2023/10/07 10:01:29;;;;;;;6.70;3.70;;;;;;;17.61;62.03;100191.57;108844;1277;23722;-78
2023/10/07 10:05:24;;;;;;;;;;;;;;;;;;;;;
2023/10/07 10:08:46;;;;;;;6.00;4.10;;;;;;;17.72;62.24;100196.41;107864;1292;21999;-78
2023/10/07 10:12:22;;;;;;;7.50;3.70;;;;;;;17.82;61.98;100193.82;109915;1256;23020;-80
2023/10/07 10:24:49;;;;;;;4.60;3.00;;;;;;;17.84;61.69;100191.38;109948;1274;21984;-79
2023/10/07 10:30:21;;;;;;;4.30;2.80;;;;;;;17.83;61.87;100194.11;110785;1248;22908;-77
2023/10/07 10:32:41;;;;;;;8.10;2.90;;;;;;;17.80;61.95;100186.55;110366;1266;23724;-79
2023/10/07 10:35:25;;;;;;;7.60;3.70;;;;;;;17.82;61.95;100189.91;110211;1264;21973;-78
2023/10/07 10:38:40;;;;;;;7.60;3.60;;;;;;;17.82;61.95;100178.83;110162;1263;23026;-79
2023/10/07 10:42:17;;;;;;;9.10;3.60;;;;;;;17.85;62.10;100175.69;110106;1263;22154;-78
2023/10/07 10:45:41;;;;;;;8.40;3.60;;;;;;;17.90;62.18;100181.67;110373;1265;21996;-80
2023/10/07 10:49:30;;;;;;;;;;;;;;;;;;;;;
2023/10/07 10:54:01;;;;;;;8.50;3.50;;;;;;;17.93;62.01;100183.18;110601;1265;23032;-79
2023/10/07 11:01:49;;;;;;;;;;;;;;;;;;;;;
2023/10/07 11:05:49;;;;;;;;;;;;;;;;;;;;;
2023/10/07 11:09:17;;;;;;;5.50;3.70;;;;;;;17.87;62.29;100173.04;108605;1286;21989;-78
2023/10/07 11:20:01;;;;;;;5.00;3.30;;;;;;;17.83;62.36;100171.37;107561;1296;22091;-78
2023/10/07 11:23:09;;;;;;;5.60;3.70;;;;;;;17.83;62.41;100163.69;107478;1297;22023;-78
2023/10/07 11:26:03;;;;;;;5.60;3.50;;;;;;;17.79;62.45;100165.33;107417;1297;23618;-77
2023/10/07 11:29:01;;;;;;;;;;;;;;;;;;;;;
2023/10/07 11:32:13;;;;;;;;;;;;;;;;;;;;;
2023/10/07 11:35:57;;;;;;;;;;;;;;;;;;;;;
2023/10/07 11:39:24;;;;;;;;;;;;;;;;;;;;;
2023/10/07 11:43:19;;;;;;;6.70;4.10;;;;;;;17.68;62.89;100175.41;109296;1284;22631;-79
2023/10/07 11:46:46;;;;;;;;;;;;;;;;;;;;;
2023/10/07 11:51:17;;;;;;;7.60;4.10;;;;;;;17.68;63.00;100169.95;109960;1271;21691;-80
2023/10/07 11:55:27;;;;;;;;;;;;;;;;;;;;;
2023/10/07 11:59:30;;;;;;;;;;;;;;;;;;;;;
2023/10/07 12:02:36;;;;;;;7.60;4.70;;;;;;;17.65;63.36;100169.30;109258;1276;23816;-81
2023/10/07 12:05:59;;;;;;;;;;;;;;;17.66;63.55;100173.44;108822;1284;23615;-82
2023/10/07 12:09:04;;;;;;;7.20;4.10;;;;;;;17.62;63.65;100173.07;108786;1284;22095;-80
2023/10/07 12:16:56;;;;;;;7.80;4.00;;;;;;;17.62;63.39;100169.49;108502;1286;22008;-83
2023/10/07 12:20:22;;;;;;;;;;;;;;;;;;;;;
2023/10/07 12:23:55;;;;;;;5.10;3.90;;;;;;;17.63;63.56;100168.09;108337;1284;23069;-80
2023/10/07 12:27:21;;;;;;;;;;;;;;;;;;;;;
2023/10/07 12:30:40;;;;;;;;;;;;;;;;;;;;;
2023/10/07 12:34:24;;;;;;;6.30;3.90;;;;;;;17.64;63.14;100155.81;109090;1274;22112;-82
2023/10/07 12:37:48;;;;;;;8.20;4.10;;;;;;;17.66;63.21;100153.59;109508;1277;21992;-81
2023/10/07 12:41:28;;;;;;;;;;;;;;;;;;;;;
2023/10/07 12:45:11;;;;;;;;;;;;;;;;;;;;;
2023/10/07 12:49:44;;;;;;;7.50;4.40;;;;;;;17.67;63.01;100157.20;109355;1284;22214;-79
2023/10/07 12:53:44;;;;;;;;;;;;;;;;;;;;;
2023/10/07 12:56:50;;;;;;;9.10;4.80;;;;;;;17.61;63.08;100159.70;108700;1278;21991;-77
2023/10/07 13:00:03;;;;;;;5.60;4.10;;;;;;;17.59;63.14;100152.98;108571;1283;22001;-79
2023/10/07 13:03:12;;;;;;;7.70;4.80;;;;;;;17.59;63.03;100152.48;108461;1284;21994;-79
2023/10/07 13:06:04;;;;;;;6.20;4.80;;;;;;;17.53;63.30;100149.00;108310;1288;23650;-79
2023/10/07 13:09:16;;;;;;;6.00;4.70;;;;;;;17.51;63.36;100146.14;108558;1284;21996;-78
2023/10/07 13:12:18;;;;;;;6.90;5.00;;;;;;;17.48;63.49;100141.63;108445;1285;22369;-81
2023/10/07 13:15:30;;;;;;;7.20;4.70;;;;;;;17.48;63.36;100137.25;108626;1280;23001;-79
2023/10/07 13:18:35;;;;;;;9.80;5.30;;;;;;;17.43;63.49;100127.52;108940;1276;22006;-78
2023/10/07 13:21:45;;;;;;;10.50;5.40;;;;;;;17.44;63.62;100130.13;109105;1273;21986;-78
2023/10/07 13:25:01;;;;;;;10.50;5.50;;;;;;;17.43;63.56;100121.91;109267;1272;23529;-79
2023/10/07 13:28:02;;;;;;;8.90;5.90;;;;;;;17.45;63.70;100118.62;109674;1270;21984;-78
2023/10/07 13:31:22;;;;;;;13.40;5.30;;;;;;;17.45;63.76;100113.67;108922;1278;22012;-79
2023/10/07 13:34:23;;;;;;;7.70;5.10;;;;;;;17.46;63.61;100114.31;108605;1283;22450;-78
2023/10/07 13:37:29;;;;;;;5.80;4.70;;;;;;;17.47;63.71;100112.33;108613;1283;24332;-78
2023/10/07 13:40:36;;;;;;;;;;;;;;;;;;;;;
2023/10/07 13:43:16;;;;;;;11.00;4.90;;;;;;;17.47;63.35;100108.42;109221;1274;21985;-78
2023/10/07 13:46:35;;;;;;;7.30;4.30;;;;;;;17.46;63.60;100109.88;109217;1274;22006;-80
2023/10/07 13:49:33;;;;;;;10.30;4.80;;;;;;;17.43;63.59;100104.19;109257;1274;23129;-78
2023/10/07 13:56:44;;;;;;;;;;;;;;;;;;;;;
2023/10/07 14:00:15;;;;;;;9.00;5.00;;;;;;;17.32;64.04;100105.27;109516;1274;21985;-85
2023/10/07 14:03:19;;;;;;;8.20;5.00;;;;;;;17.28;64.19;100102.94;109280;1274;23587;-81
2023/10/07 14:06:14;;;;;;;10.90;5.40;;;;;;;17.26;64.35;100107.70;109397;1273;21995;-80
2023/10/07 14:09:18;;;;;;;7.20;5.30;;;;;;;17.21;64.58;100113.27;109387;1274;21994;-80
2023/10/07 14:12:46;;;;;;;9.20;5.30;;;;;;;17.07;64.95;100115.77;109270;1274;21987;-81
2023/10/07 14:16:18;;;;;;;6.80;3.90;;;;;;;16.92;65.75;100112.79;109257;1274;21993;-78
2023/10/07 14:19:11;;;;;;;7.70;5.20;;;;;;;16.80;66.47;100109.54;109113;1275;21996;-78
2023/10/07 14:22:17;;;;;;;8.40;5.50;;;;;;;16.73;66.91;100107.19;109307;1271;22972;-78
2023/10/07 14:25:50;;;;;;;;;;;;;;;;;;;;;
2023/10/07 14:28:59;;;;;;;9.00;7.20;;;;;;;16.38;67.90;100095.79;110290;1265;21984;-78
2023/10/07 14:31:58;;;;;;;9.40;6.70;;;;;;;16.34;68.62;100103.04;110205;1266;23362;-78
2023/10/07 14:35:25;;;;;;;9.30;7.60;;;;;;;16.28;69.26;100108.38;109762;1270;21995;-79
2023/10/07 14:38:20;;;;;;;9.60;7.40;;;;;;;16.24;69.71;100113.76;109655;1270;23702;-79
2023/10/07 14:41:08;;;;;;;9.60;7.60;;;;;;;16.19;70.13;100114.27;109187;1275;23709;-79
2023/10/07 14:43:46;;;;;;;8.20;7.30;;;;;;;16.13;70.45;100111.13;109396;1271;22566;-79
2023/10/07 14:46:44;;;;;;;8.80;6.60;;;;;;;16.05;70.91;100102.02;109429;1271;22009;-80
2023/10/07 14:49:58;;;;;;;7.70;6.60;;;;;;;15.97;71.18;100098.48;109521;1271;22196;-78
2023/10/07 14:52:39;;;;;;;12.10;7.70;;;;;;;15.90;71.70;100102.22;109485;1268;22013;-79
2023/10/07 14:55:53;;;;;;;12.40;8.10;;;;;;;15.86;71.98;100102.33;110073;1268;22026;-79
2023/10/07 14:59:01;;;;;;;8.70;7.00;;;;;;;15.79;72.33;100096.25;109868;1263;21976;-80
2023/10/07 15:02:37;;;;;;;11.00;8.30;;;;;;;15.70;72.83;100101.02;110422;1267;23151;-79
2023/10/07 15:05:57;;;;;;;19.60;17.80;;;;;;;15.63;73.28;100097.95;109467;1272;22739;-77
2023/10/07 15:09:21;;;;;;;12.90;11.50;;;;;;;15.58;73.69;100092.46;109309;1276;22057;-79
2023/10/07 15:16:43;;;;;;;9.90;8.90;;;;;;;15.53;74.41;100087.87;108815;1283;23622;-80
2023/10/07 15:19:33;;;;;;;12.60;9.50;;;;;;;15.52;74.56;100084.60;108456;1281;23065;-78
2023/10/07 15:22:12;;;;;;;14.50;9.60;;;;;;;15.55;74.81;100084.61;108512;1285;23045;-78
2023/10/07 15:25:06;;;;;;;10.40;8.80;;;;;;;15.54;75.01;100085.70;108510;1286;21981;-79
2023/10/07 15:31:54;;;;;;;11.10;8.30;;;;;;;15.48;75.32;100082.05;108205;1290;21985;-78
2023/10/07 15:35:31;;;;;;;9.10;8.20;;;;;;;15.47;75.69;100078.30;108209;1290;22724;-79
2023/10/07 15:49:35;;;;;;;11.00;9.90;;;;;;;16.73;73.11;100062.54;108158;1287;549051;-78
2023/10/07 15:52:22;;;;;;;9.80;8.90;;;;;;;16.89;72.96;100058.48;103791;1269;7982999;-79
2023/10/07 15:56:06;;;;;;;8.80;7.90;;;;;;;16.47;73.81;100058.34;111123;1260;22160;-78
2023/10/07 16:00:12;;;;;;;;;;;;;;;;;;;;;
2023/10/07 16:03:26;;;;;;;10.00;8.60;;;;;;;16.01;75.27;100055.20;110402;1263;21987;-79
2023/10/07 16:07:43;;;;;;;8.10;7.30;;;;;;;15.89;75.70;100057.56;109393;1271;23638;-77
2023/10/07 16:10:54;;;;;;;10.40;7.60;;;;;;;15.79;75.97;100042.96;108839;1276;21989;-78
2023/10/07 16:14:35;;;;;;;8.70;7.40;;;;;;;15.79;76.38;100048.04;108458;1282;23624;-79
2023/10/07 16:17:49;;;;;;;7.60;6.80;;;;;;;15.74;76.45;100056.21;108016;1289;23731;-79
2023/10/07 16:20:55;;;;;;;8.10;7.20;;;;;;;15.70;76.80;100051.74;108061;1287;22026;-78
2023/10/07 16:23:30;;;;;;;9.00;6.80;;;;;;;15.67;76.83;100050.02;108206;1291;23702;-75
2023/10/07 16:25:58;;;;;;;11.40;7.10;;;;;;;15.67;77.04;100046.65;107864;1289;22025;-76
2023/10/07 16:28:48;;;;;;;11.80;8.10;;;;;;;15.65;77.00;100048.17;107918;1287;22010;-75
2023/10/07 16:31:47;;;;;;;9.90;8.10;;;;;;;15.61;77.31;100044.75;109162;1270;22903;-74
2023/10/07 16:34:37;;;;;;;10.20;8.40;;;;;;;15.60;77.46;100044.13;109430;1269;21976;-76
2023/10/07 16:37:36;;;;;;;9.00;7.30;;;;;;;15.59;77.67;100044.89;109093;1273;23710;-77
2023/10/07 16:40:57;;;;;;;;;;;;;;;;;;;;;
2023/10/07 16:44:14;;;;;;;9.20;6.80;;;;;;;15.55;78.08;100034.60;109313;1270;23716;-78
2023/10/07 16:47:32;;;;;;;8.50;7.60;;;;;;;15.55;78.14;100028.67;109309;1273;23753;-79
2023/10/07 16:51:43;;;;;;;;;;;;;;;;;;;;;
2023/10/07 16:55:18;;;;;;;;;;;;;;;;;;;;;
2023/10/07 16:58:42;;;;;;;;;;;;;;;;;;;;;
2023/10/07 17:02:50;;;;;;;13.30;12.10;;;;;;;15.06;76.64;100043.81;109266;1275;23094;-78
2023/10/07 17:06:12;;;;;;;5.50;3.70;;;;;;;14.78;76.49;100058.29;109024;1276;21981;-78
2023/10/07 17:08:52;;;;;;;5.90;3.90;;;;;;;14.61;76.07;100068.72;109197;1276;21981;-77
2023/10/07 17:12:16;;;;;;;4.10;2.60;;;;;;;14.28;75.64;100063.29;108949;1277;22028;-80
2023/10/07 17:30:03;;;;;;;;;;;;;;;;;;;;;
2023/10/07 17:33:32;;;;;;;;;;;;;;;;;;;;;
2023/10/07 17:36:41;;;;;;;3.20;2.40;;;;;;;13.84;72.72;100111.58;110266;1265;23186;-77
2023/10/07 17:44:09;;;;;;;;;;;;;;;;;;;;;
2023/10/07 17:47:49;;;;;;;7.30;5.40;;;;;;;13.02;75.27;100135.48;108740;1279;22283;-78
2023/10/07 17:51:35;;;;;;;;;;;;;;;;;;;;;
2023/10/07 17:58:18;;;;;;;6.30;4.60;;;;;;;12.61;76.30;100151.17;107866;1288;23708;-79
2023/10/07 18:05:20;;;;;;;7.60;4.40;;;;;;;12.40;76.91;100179.23;107260;1300;22021;-79
2023/10/07 18:20:10;;;;;;;;;;;;;;;;;;;;;
2023/10/07 18:24:10;;;;;;;5.60;2.60;;;;;;;12.45;72.83;100190.19;107853;1251;21954;-81
2023/10/07 18:28:40;;;;;;;8.10;2.30;;;;;;;12.06;74.13;100208.20;111172;1253;21972;-79
2023/10/07 18:32:14;;;;;;;;;;;;;;;;;;;;;